sensor_id;sensor_type;location;lat;lon;timestamp;P1;durP1;ratioP1;P2;durP2;ratioP2
72621;SDS011;60665;53.506;9.582;2022-08-19T00:00:25;12.50;;;2.97;;
72621;SDS011;60665;53.506;9.582;2022-08-19T00:02:52;6.82;;;2.47;;
72621;SDS011;60665;53.506;9.582;2022-08-19T00:05:18;7.43;;;2.70;;
72621;SDS011;60665;53.506;9.582;2022-08-19T00:07:44;6.60;;;3.28;;
72621;SDS011;60665;53.506;9.582;2022-08-19T00:10:10;7.05;;;2.80;;
72621;SDS011;60665;53.506;9.582;2022-08-19T00:12:37;7.10;;;2.70;;
72621;SDS011;60665;53.506;9.582;2022-08-19T00:15:07;7.43;;;2.45;;
72621;SDS011;60665;53.506;9.582;2022-08-19T00:17:41;4.65;;;2.25;;
72621;SDS011;60665;53.506;9.582;2022-08-19T00:20:08;9.00;;;3.30;;
72621;SDS011;60665;53.506;9.582;2022-08-19T00:22:35;8.35;;;2.88;;
72621;SDS011;60665;53.506;9.582;2022-08-19T00:25:01;4.93;;;2.88;;
72621;SDS011;60665;53.506;9.582;2022-08-19T00:27:26;5.43;;;2.58;;
72621;SDS011;60665;53.506;9.582;2022-08-19T00:29:52;7.93;;;2.50;;
72621;SDS011;60665;53.506;9.582;2022-08-19T00:32:18;6.82;;;2.90;;
72621;SDS011;60665;53.506;9.582;2022-08-19T00:34:43;7.63;;;3.20;;
72621;SDS011;60665;53.506;9.582;2022-08-19T00:37:08;6.63;;;2.42;;
72621;SDS011;60665;53.506;9.582;2022-08-19T00:39:34;6.63;;;2.55;;
72621;SDS011;60665;53.506;9.582;2022-08-19T00:41:59;6.25;;;2.70;;
72621;SDS011;60665;53.506;9.582;2022-08-19T00:44:26;6.13;;;3.00;;
72621;SDS011;60665;53.506;9.582;2022-08-19T00:46:53;8.13;;;3.30;;
72621;SDS011;60665;53.506;9.582;2022-08-19T00:51:47;6.30;;;2.42;;
72621;SDS011;60665;53.506;9.582;2022-08-19T00:54:15;7.95;;;2.67;;
72621;SDS011;60665;53.506;9.582;2022-08-19T00:56:41;7.35;;;3.67;;
72621;SDS011;60665;53.506;9.582;2022-08-19T00:59:06;6.05;;;2.85;;
72621;SDS011;60665;53.506;9.582;2022-08-19T01:01:39;6.60;;;3.03;;
72621;SDS011;60665;53.506;9.582;2022-08-19T01:04:05;6.95;;;2.83;;
72621;SDS011;60665;53.506;9.582;2022-08-19T01:06:30;6.00;;;2.58;;
72621;SDS011;60665;53.506;9.582;2022-08-19T01:08:57;8.20;;;2.90;;
72621;SDS011;60665;53.506;9.582;2022-08-19T01:11:23;8.98;;;3.30;;
72621;SDS011;60665;53.506;9.582;2022-08-19T01:13:48;6.00;;;2.40;;
72621;SDS011;60665;53.506;9.582;2022-08-19T01:16:15;6.00;;;2.90;;
72621;SDS011;60665;53.506;9.582;2022-08-19T01:18:42;6.32;;;2.70;;
72621;SDS011;60665;53.506;9.582;2022-08-19T01:23:59;8.32;;;2.90;;
72621;SDS011;60665;53.506;9.582;2022-08-19T01:26:26;6.60;;;3.50;;
72621;SDS011;60665;53.506;9.582;2022-08-19T01:28:53;8.50;;;3.72;;
72621;SDS011;60665;53.506;9.582;2022-08-19T01:31:21;6.97;;;2.53;;
72621;SDS011;60665;53.506;9.582;2022-08-19T01:33:49;6.95;;;2.97;;
72621;SDS011;60665;53.506;9.582;2022-08-19T01:36:49;8.48;;;3.47;;
72621;SDS011;60665;53.506;9.582;2022-08-19T01:39:13;9.15;;;3.53;;
72621;SDS011;60665;53.506;9.582;2022-08-19T01:41:44;8.65;;;3.50;;
72621;SDS011;60665;53.506;9.582;2022-08-19T01:44:10;8.75;;;3.60;;
72621;SDS011;60665;53.506;9.582;2022-08-19T01:46:36;6.65;;;3.30;;
72621;SDS011;60665;53.506;9.582;2022-08-19T01:49:02;6.70;;;3.15;;
72621;SDS011;60665;53.506;9.582;2022-08-19T01:51:28;7.15;;;3.45;;
72621;SDS011;60665;53.506;9.582;2022-08-19T01:53:55;6.82;;;2.95;;
72621;SDS011;60665;53.506;9.582;2022-08-19T01:56:21;8.68;;;3.15;;
72621;SDS011;60665;53.506;9.582;2022-08-19T01:58:48;8.63;;;4.03;;
72621;SDS011;60665;53.506;9.582;2022-08-19T02:01:18;7.93;;;4.03;;
72621;SDS011;60665;53.506;9.582;2022-08-19T02:03:44;7.88;;;3.60;;
72621;SDS011;60665;53.506;9.582;2022-08-19T02:06:10;9.40;;;4.20;;
72621;SDS011;60665;53.506;9.582;2022-08-19T02:08:36;8.82;;;3.88;;
72621;SDS011;60665;53.506;9.582;2022-08-19T02:11:03;8.00;;;3.88;;
72621;SDS011;60665;53.506;9.582;2022-08-19T02:13:29;9.85;;;4.00;;
72621;SDS011;60665;53.506;9.582;2022-08-19T02:15:54;10.27;;;4.68;;
72621;SDS011;60665;53.506;9.582;2022-08-19T02:18:20;6.82;;;3.72;;
72621;SDS011;60665;53.506;9.582;2022-08-19T02:20:46;11.60;;;5.00;;
72621;SDS011;60665;53.506;9.582;2022-08-19T02:23:13;7.85;;;4.53;;
72621;SDS011;60665;53.506;9.582;2022-08-19T02:25:39;7.72;;;3.72;;
72621;SDS011;60665;53.506;9.582;2022-08-19T02:28:05;8.40;;;4.35;;
72621;SDS011;60665;53.506;9.582;2022-08-19T02:30:30;9.38;;;4.68;;
72621;SDS011;60665;53.506;9.582;2022-08-19T02:32:56;8.95;;;4.35;;
72621;SDS011;60665;53.506;9.582;2022-08-19T02:35:22;6.63;;;3.75;;
72621;SDS011;60665;53.506;9.582;2022-08-19T02:37:48;7.78;;;3.40;;
72621;SDS011;60665;53.506;9.582;2022-08-19T02:40:32;9.10;;;4.30;;
72621;SDS011;60665;53.506;9.582;2022-08-19T02:43:02;9.18;;;3.70;;
72621;SDS011;60665;53.506;9.582;2022-08-19T02:45:36;7.22;;;3.88;;
72621;SDS011;60665;53.506;9.582;2022-08-19T02:48:02;8.10;;;3.92;;
72621;SDS011;60665;53.506;9.582;2022-08-19T02:50:29;6.03;;;3.00;;
72621;SDS011;60665;53.506;9.582;2022-08-19T02:52:54;7.43;;;3.00;;
72621;SDS011;60665;53.506;9.582;2022-08-19T02:55:20;7.95;;;3.35;;
72621;SDS011;60665;53.506;9.582;2022-08-19T02:57:46;7.82;;;3.10;;
72621;SDS011;60665;53.506;9.582;2022-08-19T03:00:12;6.68;;;3.13;;
72621;SDS011;60665;53.506;9.582;2022-08-19T03:02:38;6.88;;;3.33;;
72621;SDS011;60665;53.506;9.582;2022-08-19T03:05:06;8.90;;;3.63;;
72621;SDS011;60665;53.506;9.582;2022-08-19T03:07:33;7.65;;;3.80;;
72621;SDS011;60665;53.506;9.582;2022-08-19T03:09:58;8.40;;;4.10;;
72621;SDS011;60665;53.506;9.582;2022-08-19T03:12:23;8.30;;;3.97;;
72621;SDS011;60665;53.506;9.582;2022-08-19T03:14:49;9.30;;;3.55;;
72621;SDS011;60665;53.506;9.582;2022-08-19T03:17:14;7.53;;;3.47;;
72621;SDS011;60665;53.506;9.582;2022-08-19T03:19:40;8.80;;;3.67;;
72621;SDS011;60665;53.506;9.582;2022-08-19T03:22:05;7.30;;;3.10;;
72621;SDS011;60665;53.506;9.582;2022-08-19T03:24:31;7.22;;;3.42;;
72621;SDS011;60665;53.506;9.582;2022-08-19T03:26:57;11.15;;;3.38;;
72621;SDS011;60665;53.506;9.582;2022-08-19T03:29:24;9.38;;;3.95;;
72621;SDS011;60665;53.506;9.582;2022-08-19T03:31:51;8.30;;;3.65;;
72621;SDS011;60665;53.506;9.582;2022-08-19T03:34:20;5.55;;;3.10;;
72621;SDS011;60665;53.506;9.582;2022-08-19T03:36:51;7.25;;;3.10;;
72621;SDS011;60665;53.506;9.582;2022-08-19T03:39:19;11.60;;;3.50;;
72621;SDS011;60665;53.506;9.582;2022-08-19T03:41:46;7.32;;;3.15;;
72621;SDS011;60665;53.506;9.582;2022-08-19T03:44:14;8.00;;;3.60;;
72621;SDS011;60665;53.506;9.582;2022-08-19T03:46:42;7.90;;;3.72;;
72621;SDS011;60665;53.506;9.582;2022-08-19T03:49:08;7.32;;;3.55;;
72621;SDS011;60665;53.506;9.582;2022-08-19T03:51:36;9.20;;;3.70;;
72621;SDS011;60665;53.506;9.582;2022-08-19T03:54:04;8.73;;;3.22;;
72621;SDS011;60665;53.506;9.582;2022-08-19T03:56:33;10.48;;;4.22;;
72621;SDS011;60665;53.506;9.582;2022-08-19T03:58:59;10.18;;;3.63;;
72621;SDS011;60665;53.506;9.582;2022-08-19T04:01:26;7.47;;;3.80;;
72621;SDS011;60665;53.506;9.582;2022-08-19T04:03:52;7.88;;;3.88;;
72621;SDS011;60665;53.506;9.582;2022-08-19T04:06:20;7.28;;;3.75;;
72621;SDS011;60665;53.506;9.582;2022-08-19T04:08:47;9.00;;;3.97;;
72621;SDS011;60665;53.506;9.582;2022-08-19T04:11:15;7.18;;;3.78;;
72621;SDS011;60665;53.506;9.582;2022-08-19T04:13:45;7.55;;;3.88;;
72621;SDS011;60665;53.506;9.582;2022-08-19T04:16:11;8.55;;;3.53;;
72621;SDS011;60665;53.506;9.582;2022-08-19T04:18:37;10.65;;;4.28;;
72621;SDS011;60665;53.506;9.582;2022-08-19T04:21:03;9.80;;;3.63;;
72621;SDS011;60665;53.506;9.582;2022-08-19T04:23:29;10.95;;;4.03;;
72621;SDS011;60665;53.506;9.582;2022-08-19T04:25:55;9.23;;;4.40;;
72621;SDS011;60665;53.506;9.582;2022-08-19T04:28:21;9.18;;;4.53;;
72621;SDS011;60665;53.506;9.582;2022-08-19T04:30:48;8.60;;;4.28;;
72621;SDS011;60665;53.506;9.582;2022-08-19T04:35:42;10.63;;;3.63;;
72621;SDS011;60665;53.506;9.582;2022-08-19T04:38:09;13.70;;;5.00;;
72621;SDS011;60665;53.506;9.582;2022-08-19T04:40:42;8.52;;;4.22;;
72621;SDS011;60665;53.506;9.582;2022-08-19T04:43:27;8.30;;;4.05;;
72621;SDS011;60665;53.506;9.582;2022-08-19T04:45:52;8.80;;;5.00;;
72621;SDS011;60665;53.506;9.582;2022-08-19T04:48:18;11.82;;;4.15;;
72621;SDS011;60665;53.506;9.582;2022-08-19T04:50:50;10.25;;;4.20;;
72621;SDS011;60665;53.506;9.582;2022-08-19T04:53:18;11.23;;;4.53;;
72621;SDS011;60665;53.506;9.582;2022-08-19T04:55:43;8.95;;;3.72;;
72621;SDS011;60665;53.506;9.582;2022-08-19T04:58:09;11.65;;;4.88;;
72621;SDS011;60665;53.506;9.582;2022-08-19T05:00:36;9.43;;;4.40;;
72621;SDS011;60665;53.506;9.582;2022-08-19T05:03:03;11.05;;;5.25;;
72621;SDS011;60665;53.506;9.582;2022-08-19T05:05:28;12.80;;;4.75;;
72621;SDS011;60665;53.506;9.582;2022-08-19T05:07:53;7.80;;;4.20;;
72621;SDS011;60665;53.506;9.582;2022-08-19T05:10:20;9.40;;;4.30;;
72621;SDS011;60665;53.506;9.582;2022-08-19T05:12:46;9.60;;;4.57;;
72621;SDS011;60665;53.506;9.582;2022-08-19T05:15:11;7.00;;;3.50;;
72621;SDS011;60665;53.506;9.582;2022-08-19T05:17:37;12.15;;;5.00;;
72621;SDS011;60665;53.506;9.582;2022-08-19T05:20:03;10.13;;;3.95;;
72621;SDS011;60665;53.506;9.582;2022-08-19T05:25:16;13.80;;;4.40;;
72621;SDS011;60665;53.506;9.582;2022-08-19T05:27:44;9.18;;;3.95;;
72621;SDS011;60665;53.506;9.582;2022-08-19T05:30:10;10.50;;;3.60;;
72621;SDS011;60665;53.506;9.582;2022-08-19T05:32:36;8.27;;;3.97;;
72621;SDS011;60665;53.506;9.582;2022-08-19T05:35:02;8.00;;;3.85;;
72621;SDS011;60665;53.506;9.582;2022-08-19T05:37:28;11.40;;;3.92;;
72621;SDS011;60665;53.506;9.582;2022-08-19T05:39:53;11.93;;;4.55;;
72621;SDS011;60665;53.506;9.582;2022-08-19T05:42:19;9.00;;;4.25;;
72621;SDS011;60665;53.506;9.582;2022-08-19T05:44:47;10.93;;;4.00;;
72621;SDS011;60665;53.506;9.582;2022-08-19T05:47:14;11.18;;;4.05;;
72621;SDS011;60665;53.506;9.582;2022-08-19T05:49:40;6.63;;;3.42;;
72621;SDS011;60665;53.506;9.582;2022-08-19T05:52:08;10.95;;;3.28;;
72621;SDS011;60665;53.506;9.582;2022-08-19T05:54:37;11.43;;;3.75;;
72621;SDS011;60665;53.506;9.582;2022-08-19T05:57:05;7.85;;;3.63;;
72621;SDS011;60665;53.506;9.582;2022-08-19T05:59:30;8.20;;;3.53;;
72621;SDS011;60665;53.506;9.582;2022-08-19T06:01:56;7.93;;;3.75;;
72621;SDS011;60665;53.506;9.582;2022-08-19T06:04:22;8.40;;;3.60;;
72621;SDS011;60665;53.506;9.582;2022-08-19T06:06:51;13.82;;;4.00;;
72621;SDS011;60665;53.506;9.582;2022-08-19T06:09:17;11.45;;;3.97;;
72621;SDS011;60665;53.506;9.582;2022-08-19T06:11:45;8.50;;;4.00;;
72621;SDS011;60665;53.506;9.582;2022-08-19T06:14:13;12.07;;;4.25;;
72621;SDS011;60665;53.506;9.582;2022-08-19T06:16:40;6.63;;;3.45;;
72621;SDS011;60665;53.506;9.582;2022-08-19T06:19:08;6.50;;;3.75;;
72621;SDS011;60665;53.506;9.582;2022-08-19T06:21:39;6.10;;;3.40;;
72621;SDS011;60665;53.506;9.582;2022-08-19T06:24:06;7.65;;;3.72;;
72621;SDS011;60665;53.506;9.582;2022-08-19T06:26:36;10.13;;;3.95;;
72621;SDS011;60665;53.506;9.582;2022-08-19T06:29:04;8.68;;;4.35;;
72621;SDS011;60665;53.506;9.582;2022-08-19T06:33:58;8.90;;;4.13;;
72621;SDS011;60665;53.506;9.582;2022-08-19T06:39:00;9.85;;;3.97;;
72621;SDS011;60665;53.506;9.582;2022-08-19T06:41:27;8.40;;;3.25;;
72621;SDS011;60665;53.506;9.582;2022-08-19T06:43:53;6.90;;;3.60;;
72621;SDS011;60665;53.506;9.582;2022-08-19T06:46:19;10.82;;;4.03;;
72621;SDS011;60665;53.506;9.582;2022-08-19T06:48:45;8.10;;;4.18;;
72621;SDS011;60665;53.506;9.582;2022-08-19T06:51:12;10.27;;;3.85;;
72621;SDS011;60665;53.506;9.582;2022-08-19T06:53:43;9.38;;;4.05;;
72621;SDS011;60665;53.506;9.582;2022-08-19T06:56:11;9.45;;;4.45;;
72621;SDS011;60665;53.506;9.582;2022-08-19T06:58:37;10.00;;;4.93;;
72621;SDS011;60665;53.506;9.582;2022-08-19T07:01:03;11.13;;;4.93;;
72621;SDS011;60665;53.506;9.582;2022-08-19T07:03:30;9.48;;;4.53;;
72621;SDS011;60665;53.506;9.582;2022-08-19T07:05:57;10.52;;;5.22;;
72621;SDS011;60665;53.506;9.582;2022-08-19T07:08:27;8.38;;;5.30;;
72621;SDS011;60665;53.506;9.582;2022-08-19T07:10:52;10.85;;;4.60;;
72621;SDS011;60665;53.506;9.582;2022-08-19T07:13:18;12.13;;;5.93;;
72621;SDS011;60665;53.506;9.582;2022-08-19T07:15:44;17.02;;;6.18;;
72621;SDS011;60665;53.506;9.582;2022-08-19T07:18:11;10.82;;;5.85;;
72621;SDS011;60665;53.506;9.582;2022-08-19T07:20:36;15.60;;;5.93;;
72621;SDS011;60665;53.506;9.582;2022-08-19T07:23:04;14.73;;;6.35;;
72621;SDS011;60665;53.506;9.582;2022-08-19T07:25:29;20.05;;;6.10;;
72621;SDS011;60665;53.506;9.582;2022-08-19T07:27:54;13.23;;;6.10;;
72621;SDS011;60665;53.506;9.582;2022-08-19T07:30:20;14.45;;;6.50;;
72621;SDS011;60665;53.506;9.582;2022-08-19T07:32:45;11.48;;;6.03;;
72621;SDS011;60665;53.506;9.582;2022-08-19T07:35:10;11.27;;;5.90;;
72621;SDS011;60665;53.506;9.582;2022-08-19T07:37:36;14.30;;;5.70;;
72621;SDS011;60665;53.506;9.582;2022-08-19T07:40:04;10.98;;;6.20;;
72621;SDS011;60665;53.506;9.582;2022-08-19T07:42:30;10.80;;;5.97;;
72621;SDS011;60665;53.506;9.582;2022-08-19T07:44:55;14.07;;;5.05;;
72621;SDS011;60665;53.506;9.582;2022-08-19T07:47:21;9.98;;;4.43;;
72621;SDS011;60665;53.506;9.582;2022-08-19T07:49:47;10.02;;;5.25;;
72621;SDS011;60665;53.506;9.582;2022-08-19T07:52:13;11.73;;;5.32;;
72621;SDS011;60665;53.506;9.582;2022-08-19T07:54:39;9.38;;;4.88;;
72621;SDS011;60665;53.506;9.582;2022-08-19T07:57:05;10.05;;;5.32;;
72621;SDS011;60665;53.506;9.582;2022-08-19T07:59:31;10.02;;;4.22;;
72621;SDS011;60665;53.506;9.582;2022-08-19T08:01:57;10.23;;;4.13;;
72621;SDS011;60665;53.506;9.582;2022-08-19T08:04:25;10.50;;;4.75;;
72621;SDS011;60665;53.506;9.582;2022-08-19T08:07:09;8.27;;;4.68;;
72621;SDS011;60665;53.506;9.582;2022-08-19T08:09:53;6.60;;;4.22;;
72621;SDS011;60665;53.506;9.582;2022-08-19T08:12:38;11.85;;;5.57;;
72621;SDS011;60665;53.506;9.582;2022-08-19T08:15:12;9.52;;;4.20;;
72621;SDS011;60665;53.506;9.582;2022-08-19T08:17:44;13.10;;;5.20;;
72621;SDS011;60665;53.506;9.582;2022-08-19T08:20:09;8.38;;;3.85;;
72621;SDS011;60665;53.506;9.582;2022-08-19T08:22:35;9.30;;;4.00;;
72621;SDS011;60665;53.506;9.582;2022-08-19T08:25:20;9.90;;;4.82;;
72621;SDS011;60665;53.506;9.582;2022-08-19T08:27:47;9.75;;;4.40;;
72621;SDS011;60665;53.506;9.582;2022-08-19T08:30:22;9.20;;;4.22;;
72621;SDS011;60665;53.506;9.582;2022-08-19T08:32:49;9.52;;;4.43;;
72621;SDS011;60665;53.506;9.582;2022-08-19T08:35:16;12.05;;;4.95;;
72621;SDS011;60665;53.506;9.582;2022-08-19T08:37:44;8.70;;;4.70;;
72621;SDS011;60665;53.506;9.582;2022-08-19T08:42:47;12.48;;;5.28;;
72621;SDS011;60665;53.506;9.582;2022-08-19T08:45:40;10.98;;;5.35;;
72621;SDS011;60665;53.506;9.582;2022-08-19T08:48:13;9.10;;;4.22;;
72621;SDS011;60665;53.506;9.582;2022-08-19T08:50:46;8.85;;;4.07;;
72621;SDS011;60665;53.506;9.582;2022-08-19T08:53:13;8.90;;;4.28;;
72621;SDS011;60665;53.506;9.582;2022-08-19T08:55:41;11.90;;;4.80;;
72621;SDS011;60665;53.506;9.582;2022-08-19T08:58:09;12.25;;;4.13;;
72621;SDS011;60665;53.506;9.582;2022-08-19T09:00:42;10.40;;;4.90;;
72621;SDS011;60665;53.506;9.582;2022-08-19T09:03:16;10.50;;;4.30;;
72621;SDS011;60665;53.506;9.582;2022-08-19T09:08:48;10.73;;;4.45;;
72621;SDS011;60665;53.506;9.582;2022-08-19T09:16:49;9.63;;;4.90;;
72621;SDS011;60665;53.506;9.582;2022-08-19T09:19:16;8.32;;;3.80;;
72621;SDS011;60665;53.506;9.582;2022-08-19T09:21:42;9.20;;;4.68;;
72621;SDS011;60665;53.506;9.582;2022-08-19T09:24:08;10.85;;;4.75;;
72621;SDS011;60665;53.506;9.582;2022-08-19T09:26:33;8.32;;;4.35;;
72621;SDS011;60665;53.506;9.582;2022-08-19T09:28:59;9.02;;;5.20;;
72621;SDS011;60665;53.506;9.582;2022-08-19T09:31:26;10.02;;;5.47;;
72621;SDS011;60665;53.506;9.582;2022-08-19T09:33:53;10.68;;;5.45;;
72621;SDS011;60665;53.506;9.582;2022-08-19T09:36:22;13.00;;;5.53;;
72621;SDS011;60665;53.506;9.582;2022-08-19T09:38:48;10.75;;;6.10;;
72621;SDS011;60665;53.506;9.582;2022-08-19T09:41:16;10.07;;;5.70;;
72621;SDS011;60665;53.506;9.582;2022-08-19T09:43:45;11.57;;;6.05;;
72621;SDS011;60665;53.506;9.582;2022-08-19T09:46:12;11.30;;;5.97;;
72621;SDS011;60665;53.506;9.582;2022-08-19T09:48:38;8.38;;;5.40;;
72621;SDS011;60665;53.506;9.582;2022-08-19T09:51:06;11.43;;;5.30;;
72621;SDS011;60665;53.506;9.582;2022-08-19T09:53:36;11.07;;;5.18;;
72621;SDS011;60665;53.506;9.582;2022-08-19T09:56:03;9.18;;;5.50;;
72621;SDS011;60665;53.506;9.582;2022-08-19T09:58:28;10.38;;;5.13;;
72621;SDS011;60665;53.506;9.582;2022-08-19T10:00:55;11.23;;;5.28;;
72621;SDS011;60665;53.506;9.582;2022-08-19T10:03:21;9.75;;;5.07;;
72621;SDS011;60665;53.506;9.582;2022-08-19T10:05:46;11.13;;;5.32;;
72621;SDS011;60665;53.506;9.582;2022-08-19T10:08:22;9.65;;;5.32;;
72621;SDS011;60665;53.506;9.582;2022-08-19T10:10:50;10.15;;;5.47;;
72621;SDS011;60665;53.506;9.582;2022-08-19T10:13:19;10.65;;;5.25;;
72621;SDS011;60665;53.506;9.582;2022-08-19T10:15:47;9.57;;;4.68;;
72621;SDS011;60665;53.506;9.582;2022-08-19T10:18:15;12.85;;;7.35;;
72621;SDS011;60665;53.506;9.582;2022-08-19T10:20:42;10.52;;;5.90;;
72621;SDS011;60665;53.506;9.582;2022-08-19T10:23:08;11.15;;;5.95;;
72621;SDS011;60665;53.506;9.582;2022-08-19T10:25:34;12.48;;;6.30;;
72621;SDS011;60665;53.506;9.582;2022-08-19T10:27:59;11.95;;;6.35;;
72621;SDS011;60665;53.506;9.582;2022-08-19T10:30:24;10.68;;;6.40;;
72621;SDS011;60665;53.506;9.582;2022-08-19T10:32:50;13.10;;;6.65;;
72621;SDS011;60665;53.506;9.582;2022-08-19T10:35:15;11.23;;;6.40;;
72621;SDS011;60665;53.506;9.582;2022-08-19T10:37:42;11.02;;;6.82;;
72621;SDS011;60665;53.506;9.582;2022-08-19T10:40:07;11.48;;;6.65;;
72621;SDS011;60665;53.506;9.582;2022-08-19T10:42:35;13.85;;;6.45;;
72621;SDS011;60665;53.506;9.582;2022-08-19T10:45:02;12.57;;;7.18;;
72621;SDS011;60665;53.506;9.582;2022-08-19T10:47:28;14.40;;;6.65;;
72621;SDS011;60665;53.506;9.582;2022-08-19T10:49:54;11.38;;;5.72;;
72621;SDS011;60665;53.506;9.582;2022-08-19T10:52:39;9.30;;;5.40;;
72621;SDS011;60665;53.506;9.582;2022-08-19T10:55:06;9.82;;;5.78;;
72621;SDS011;60665;53.506;9.582;2022-08-19T10:57:50;11.70;;;5.10;;
72621;SDS011;60665;53.506;9.582;2022-08-19T11:00:17;10.52;;;5.53;;
72621;SDS011;60665;53.506;9.582;2022-08-19T11:02:44;11.95;;;5.80;;
72621;SDS011;60665;53.506;9.582;2022-08-19T11:05:09;10.30;;;5.68;;
72621;SDS011;60665;53.506;9.582;2022-08-19T11:07:36;10.10;;;5.05;;
72621;SDS011;60665;53.506;9.582;2022-08-19T11:10:03;12.48;;;6.43;;
72621;SDS011;60665;53.506;9.582;2022-08-19T11:12:29;9.75;;;5.32;;
72621;SDS011;60665;53.506;9.582;2022-08-19T11:14:54;10.65;;;6.53;;
72621;SDS011;60665;53.506;9.582;2022-08-19T11:17:19;9.77;;;4.75;;
72621;SDS011;60665;53.506;9.582;2022-08-19T11:19:48;11.70;;;6.03;;
72621;SDS011;60665;53.506;9.582;2022-08-19T11:22:14;11.80;;;6.55;;
72621;SDS011;60665;53.506;9.582;2022-08-19T11:24:39;11.40;;;6.05;;
72621;SDS011;60665;53.506;9.582;2022-08-19T11:27:06;10.45;;;6.22;;
72621;SDS011;60665;53.506;9.582;2022-08-19T11:29:34;10.50;;;6.50;;
72621;SDS011;60665;53.506;9.582;2022-08-19T11:32:03;10.45;;;5.57;;
72621;SDS011;60665;53.506;9.582;2022-08-19T11:34:30;9.65;;;4.93;;
72621;SDS011;60665;53.506;9.582;2022-08-19T11:36:56;10.73;;;6.03;;
72621;SDS011;60665;53.506;9.582;2022-08-19T11:39:25;7.75;;;4.72;;
72621;SDS011;60665;53.506;9.582;2022-08-19T11:46:43;9.73;;;6.45;;
72621;SDS011;60665;53.506;9.582;2022-08-19T11:49:11;10.18;;;5.40;;
72621;SDS011;60665;53.506;9.582;2022-08-19T11:51:41;10.82;;;7.05;;
72621;SDS011;60665;53.506;9.582;2022-08-19T11:54:08;9.43;;;5.90;;
72621;SDS011;60665;53.506;9.582;2022-08-19T11:56:34;9.38;;;4.68;;
72621;SDS011;60665;53.506;9.582;2022-08-19T11:59:01;9.95;;;5.60;;
72621;SDS011;60665;53.506;9.582;2022-08-19T12:01:26;11.50;;;6.75;;
72621;SDS011;60665;53.506;9.582;2022-08-19T12:03:52;12.05;;;5.95;;
72621;SDS011;60665;53.506;9.582;2022-08-19T12:06:21;13.07;;;7.03;;
72621;SDS011;60665;53.506;9.582;2022-08-19T12:08:50;10.68;;;6.43;;
72621;SDS011;60665;53.506;9.582;2022-08-19T12:11:16;11.65;;;6.15;;
72621;SDS011;60665;53.506;9.582;2022-08-19T12:13:42;9.70;;;6.30;;
72621;SDS011;60665;53.506;9.582;2022-08-19T12:16:17;9.93;;;6.35;;
72621;SDS011;60665;53.506;9.582;2022-08-19T12:18:46;10.00;;;7.03;;
72621;SDS011;60665;53.506;9.582;2022-08-19T12:21:12;8.98;;;5.43;;
72621;SDS011;60665;53.506;9.582;2022-08-19T12:23:39;11.40;;;6.93;;
72621;SDS011;60665;53.506;9.582;2022-08-19T12:26:05;9.25;;;5.05;;
72621;SDS011;60665;53.506;9.582;2022-08-19T12:28:31;10.20;;;5.60;;
72621;SDS011;60665;53.506;9.582;2022-08-19T12:30:56;10.80;;;6.55;;
72621;SDS011;60665;53.506;9.582;2022-08-19T12:33:22;8.13;;;4.82;;
72621;SDS011;60665;53.506;9.582;2022-08-19T12:35:50;8.77;;;6.53;;
72621;SDS011;60665;53.506;9.582;2022-08-19T12:38:16;10.68;;;6.57;;
72621;SDS011;60665;53.506;9.582;2022-08-19T12:40:45;10.20;;;6.22;;
72621;SDS011;60665;53.506;9.582;2022-08-19T12:43:11;10.90;;;7.43;;
72621;SDS011;60665;53.506;9.582;2022-08-19T12:45:36;10.35;;;6.60;;
72621;SDS011;60665;53.506;9.582;2022-08-19T12:48:02;9.90;;;6.15;;
72621;SDS011;60665;53.506;9.582;2022-08-19T12:50:28;10.80;;;6.65;;
72621;SDS011;60665;53.506;9.582;2022-08-19T12:52:54;9.43;;;5.40;;
72621;SDS011;60665;53.506;9.582;2022-08-19T12:55:19;9.57;;;6.22;;
72621;SDS011;60665;53.506;9.582;2022-08-19T12:57:44;11.52;;;6.57;;
72621;SDS011;60665;53.506;9.582;2022-08-19T13:00:14;8.98;;;6.32;;
72621;SDS011;60665;53.506;9.582;2022-08-19T13:02:42;7.97;;;4.90;;
72621;SDS011;60665;53.506;9.582;2022-08-19T13:05:10;8.05;;;4.82;;
72621;SDS011;60665;53.506;9.582;2022-08-19T13:07:38;9.10;;;5.72;;
72621;SDS011;60665;53.506;9.582;2022-08-19T13:10:06;7.95;;;5.38;;
72621;SDS011;60665;53.506;9.582;2022-08-19T13:12:32;9.52;;;6.03;;
72621;SDS011;60665;53.506;9.582;2022-08-19T13:14:57;10.73;;;6.57;;
72621;SDS011;60665;53.506;9.582;2022-08-19T13:17:23;7.80;;;5.28;;
72621;SDS011;60665;53.506;9.582;2022-08-19T13:19:48;10.00;;;4.75;;
72621;SDS011;60665;53.506;9.582;2022-08-19T13:22:15;8.45;;;5.72;;
72621;SDS011;60665;53.506;9.582;2022-08-19T13:24:40;7.85;;;5.18;;
72621;SDS011;60665;53.506;9.582;2022-08-19T13:27:06;7.57;;;4.85;;
72621;SDS011;60665;53.506;9.582;2022-08-19T13:29:31;9.93;;;5.97;;
72621;SDS011;60665;53.506;9.582;2022-08-19T13:32:15;10.57;;;5.57;;
72621;SDS011;60665;53.506;9.582;2022-08-19T13:34:59;9.57;;;6.20;;
72621;SDS011;60665;53.506;9.582;2022-08-19T13:37:25;8.80;;;5.85;;
72621;SDS011;60665;53.506;9.582;2022-08-19T13:42:47;10.90;;;6.13;;
72621;SDS011;60665;53.506;9.582;2022-08-19T13:45:14;9.45;;;5.68;;
72621;SDS011;60665;53.506;9.582;2022-08-19T13:47:45;7.40;;;4.72;;
72621;SDS011;60665;53.506;9.582;2022-08-19T13:50:12;9.18;;;5.30;;
72621;SDS011;60665;53.506;9.582;2022-08-19T13:52:39;8.45;;;4.82;;
72621;SDS011;60665;53.506;9.582;2022-08-19T13:55:05;9.05;;;5.70;;
72621;SDS011;60665;53.506;9.582;2022-08-19T13:57:31;7.63;;;5.43;;
72621;SDS011;60665;53.506;9.582;2022-08-19T13:59:59;8.65;;;5.25;;
72621;SDS011;60665;53.506;9.582;2022-08-19T14:02:24;10.18;;;5.60;;
72621;SDS011;60665;53.506;9.582;2022-08-19T14:04:51;8.50;;;5.38;;
72621;SDS011;60665;53.506;9.582;2022-08-19T14:07:16;8.02;;;5.32;;
72621;SDS011;60665;53.506;9.582;2022-08-19T14:09:41;9.50;;;5.10;;
72621;SDS011;60665;53.506;9.582;2022-08-19T14:12:07;7.55;;;4.65;;
72621;SDS011;60665;53.506;9.582;2022-08-19T14:14:35;9.90;;;5.45;;
72621;SDS011;60665;53.506;9.582;2022-08-19T14:17:01;10.32;;;6.97;;
72621;SDS011;60665;53.506;9.582;2022-08-19T14:19:31;9.82;;;5.72;;
72621;SDS011;60665;53.506;9.582;2022-08-19T14:21:56;7.55;;;4.90;;
72621;SDS011;60665;53.506;9.582;2022-08-19T14:24:22;10.80;;;7.05;;
72621;SDS011;60665;53.506;9.582;2022-08-19T14:26:47;8.60;;;5.95;;
72621;SDS011;60665;53.506;9.582;2022-08-19T14:29:13;10.15;;;6.00;;
72621;SDS011;60665;53.506;9.582;2022-08-19T14:31:39;7.88;;;6.10;;
72621;SDS011;60665;53.506;9.582;2022-08-19T14:34:06;6.72;;;4.90;;
72621;SDS011;60665;53.506;9.582;2022-08-19T14:36:31;7.25;;;5.75;;
72621;SDS011;60665;53.506;9.582;2022-08-19T14:41:25;8.15;;;5.75;;
72621;SDS011;60665;53.506;9.582;2022-08-19T14:43:52;7.10;;;5.22;;
72621;SDS011;60665;53.506;9.582;2022-08-19T14:46:19;7.25;;;4.95;;
72621;SDS011;60665;53.506;9.582;2022-08-19T14:51:11;7.88;;;5.22;;
72621;SDS011;60665;53.506;9.582;2022-08-19T14:53:36;8.45;;;5.40;;
72621;SDS011;60665;53.506;9.582;2022-08-19T14:56:06;8.70;;;5.75;;
72621;SDS011;60665;53.506;9.582;2022-08-19T14:58:33;7.05;;;4.75;;
72621;SDS011;60665;53.506;9.582;2022-08-19T15:00:58;9.25;;;4.95;;
72621;SDS011;60665;53.506;9.582;2022-08-19T15:03:24;7.55;;;4.38;;
72621;SDS011;60665;53.506;9.582;2022-08-19T15:05:50;9.30;;;5.35;;
72621;SDS011;60665;53.506;9.582;2022-08-19T15:08:16;7.60;;;4.55;;
72621;SDS011;60665;53.506;9.582;2022-08-19T15:10:41;8.50;;;5.28;;
72621;SDS011;60665;53.506;9.582;2022-08-19T15:13:07;7.78;;;5.10;;
72621;SDS011;60665;53.506;9.582;2022-08-19T15:15:32;7.03;;;3.88;;
72621;SDS011;60665;53.506;9.582;2022-08-19T15:17:58;9.18;;;4.93;;
72621;SDS011;60665;53.506;9.582;2022-08-19T15:20:27;6.60;;;5.03;;
72621;SDS011;60665;53.506;9.582;2022-08-19T15:22:53;7.70;;;4.90;;